Time;durP1;ratioP1;P1;durP2;ratioP2;P2;SDS_P1;SDS_P2;PMS_P1;PMS_P2;Temp;Humidity;BMP_temperature;BMP_pressure;BME280_temperature;BME280_humidity;BME280_pressure;Samples;Min_cycle;Max_cycle;Signal;HPM_P1;HPM_P2
2021/04/18 00:01:29;;;;;;;1999.90;999.90;;;16.60;47.50;;;;;;5050225;28;20252;-57
2021/04/18 00:03:56;;;;;;;1999.90;999.90;;;16.60;47.70;;;;;;5050076;28;20165;-56
2021/04/18 00:06:23;;;;;;;1999.90;999.90;;;16.50;47.90;;;;;;5049746;28;20517;-65
2021/04/18 00:08:50;;;;;;;1999.90;999.90;;;16.50;47.30;;;;;;5049912;28;20169;-61
2021/04/18 00:11:19;;;;;;;1999.90;999.90;;;16.50;47.70;;;;;;5049850;28;20169;-50
2021/04/18 00:13:46;;;;;;;1999.90;999.90;;;16.50;47.80;;;;;;5049887;28;20172;-57
2021/04/18 00:16:14;;;;;;;1999.90;999.90;;;16.50;47.90;;;;;;5049775;28;20169;-59
2021/04/18 00:18:41;;;;;;;1999.90;999.90;;;16.50;47.70;;;;;;5049617;28;20632;-55
2021/04/18 00:21:08;;;;;;;1999.90;999.90;;;16.50;48.00;;;;;;5049509;28;20221;-64
2021/04/18 00:23:35;;;;;;;1999.90;999.90;;;16.50;47.30;;;;;;5049766;28;20205;-61
2021/04/18 00:26:01;;;;;;;1999.90;999.90;;;16.50;46.70;;;;;;5049703;28;20572;-41
2021/04/18 00:28:30;;;;;;;1999.90;999.90;;;16.50;46.70;;;;;;5049749;28;20193;-45
2021/04/18 00:30:57;;;;;;;1999.90;999.90;;;16.40;46.40;;;;;;5049802;28;20201;-38
2021/04/18 00:33:24;;;;;;;1999.90;999.90;;;16.40;46.90;;;;;;5049624;28;20170;-54
2021/04/18 00:35:51;;;;;;;1999.90;999.90;;;16.30;45.70;;;;;;5049622;28;20650;-43
2021/04/18 00:38:18;;;;;;;1999.90;999.90;;;16.30;44.20;;;;;;5049437;28;20197;-44
2021/04/18 00:40:45;;;;;;;1999.90;999.90;;;16.20;44.60;;;;;;5049490;28;20241;-57
2021/04/18 00:43:12;;;;;;;1999.90;999.90;;;16.10;46.10;;;;;;5049458;28;20166;-63
2021/04/18 00:45:39;;;;;;;1999.90;999.90;;;16.10;47.60;;;;;;5049385;28;20185;-59
2021/04/18 00:48:06;;;;;;;1999.90;999.90;;;16.10;49.10;;;;;;5049473;28;20257;-48
2021/04/18 00:50:37;;;;;;;1999.90;999.90;;;16.10;50.30;;;;;;5049447;28;20535;-50
2021/04/18 00:53:06;;;;;;;1999.90;999.90;;;16.10;50.80;;;;;;5049527;28;20172;-58
2021/04/18 00:55:41;;;;;;;1999.90;999.90;;;16.10;51.20;;;;;;5049269;28;20212;-35
2021/04/18 00:58:10;;;;;;;1999.90;999.90;;;16.00;50.70;;;;;;5049299;28;20161;-54
2021/04/18 01:00:37;;;;;;;1999.90;999.90;;;16.00;50.20;;;;;;5049227;28;20201;-47
2021/04/18 01:03:06;;;;;;;1999.90;999.90;;;16.00;50.00;;;;;;5048067;28;20535;-55
2021/04/18 01:05:34;;;;;;;1999.90;999.90;;;15.90;49.20;;;;;;5049204;28;20172;-62
2021/04/18 01:08:02;;;;;;;1999.90;999.90;;;15.90;48.40;;;;;;5047933;28;20165;-63
2021/04/18 01:10:30;;;;;;;1999.90;999.90;;;16.00;47.80;;;;;;5049111;28;20615;-57
2021/04/18 01:12:56;;;;;;;1999.90;999.90;;;16.00;46.80;;;;;;5048988;28;20173;-57
2021/04/18 01:15:23;;;;;;;1999.90;999.90;;;16.10;47.10;;;;;;5049037;28;20165;-58
2021/04/18 01:17:50;;;;;;;1999.90;999.90;;;16.10;47.40;;;;;;5047682;28;20161;-50
2021/04/18 01:20:20;;;;;;;1999.90;999.90;;;16.10;48.00;;;;;;5052007;28;20239;-55
2021/04/18 01:22:48;;;;;;;1999.90;999.90;;;16.20;48.50;;;;;;5052401;28;20169;-54
2021/04/18 01:25:16;;;;;;;1999.90;999.90;;;16.20;49.30;;;;;;5052306;28;20528;-58
2021/04/18 01:27:45;;;;;;;1999.90;999.90;;;16.20;49.70;;;;;;5052518;28;20180;-63
2021/04/18 01:30:17;;;;;;;1999.90;999.90;;;16.30;49.90;;;;;;5052186;28;20181;-57
2021/04/18 01:32:46;;;;;;;1999.90;999.90;;;16.30;49.80;;;;;;5052237;28;20251;-50
2021/04/18 01:35:14;;;;;;;1999.90;999.90;;;16.40;49.90;;;;;;5052160;28;20196;-50
2021/04/18 01:37:42;;;;;;;1999.90;999.90;;;16.50;48.90;;;;;;5052280;28;20249;-59
2021/04/18 01:40:17;;;;;;;1999.90;999.90;;;16.70;46.60;;;;;;5052015;28;20200;-52
2021/04/18 01:42:45;;;;;;;1999.90;999.90;;;16.90;45.80;;;;;;5050824;28;20635;-64
2021/04/18 01:45:12;;;;;;;1999.90;999.90;;;16.90;46.00;;;;;;5052049;28;20594;-57
2021/04/18 01:47:40;;;;;;;1999.90;999.90;;;16.80;45.90;;;;;;5052037;28;20189;-54
2021/04/18 01:50:10;;;;;;;1999.90;999.90;;;16.80;45.80;;;;;;5052133;28;20252;-55
2021/04/18 01:52:38;;;;;;;1999.90;999.90;;;16.70;45.00;;;;;;5052029;28;20165;-49
2021/04/18 01:55:07;;;;;;;1999.90;999.90;;;16.90;44.80;;;;;;5052058;28;20168;-46
2021/04/18 01:57:34;;;;;;;1999.90;999.90;;;16.90;43.60;;;;;;5051962;28;20170;-63
2021/04/18 02:00:01;;;;;;;1999.90;999.90;;;16.90;42.60;;;;;;5051753;28;20201;-41
2021/04/18 02:02:28;;;;;;;1999.90;999.90;;;16.80;43.00;;;;;;5051847;28;20217;-59
2021/04/18 02:04:55;;;;;;;1999.90;999.90;;;16.80;43.00;;;;;;5051777;28;20731;-61
2021/04/18 02:07:22;;;;;;;1999.90;999.90;;;16.60;42.30;;;;;;5051680;28;20580;-53
2021/04/18 02:09:49;;;;;;;1999.90;999.90;;;16.50;41.70;;;;;;5051679;28;20174;-49
2021/04/18 02:12:16;;;;;;;1999.90;999.90;;;16.50;42.20;;;;;;5051628;28;20225;-52
2021/04/18 02:14:43;;;;;;;1999.90;999.90;;;16.40;43.70;;;;;;5051683;28;20173;-58
2021/04/18 02:17:10;;;;;;;1999.90;999.90;;;16.40;43.80;;;;;;5051646;28;20177;-58
2021/04/18 02:19:37;;;;;;;1999.90;999.90;;;16.40;44.80;;;;;;5051413;28;20665;-59
2021/04/18 02:22:08;;;;;;;1999.90;999.90;;;16.30;47.00;;;;;;5050341;28;20640;-58
2021/04/18 02:24:35;;;;;;;1999.90;999.90;;;16.20;50.20;;;;;;5051463;28;20181;-43
2021/04/18 02:27:01;;;;;;;1999.90;999.90;;;16.20;51.10;;;;;;5051389;28;20524;-59
2021/04/18 02:29:28;;;;;;;1999.90;999.90;;;16.20;51.90;;;;;;5051275;28;20209;-50
2021/04/18 02:31:55;;;;;;;1999.90;999.90;;;16.10;53.70;;;;;;5051299;28;20709;-62
2021/04/18 02:34:22;;;;;;;1999.90;999.90;;;16.10;55.30;;;;;;5051131;28;20542;-61
2021/04/18 02:36:49;;;;;;;1999.90;999.90;;;16.10;55.40;;;;;;5051260;28;20563;-64
2021/04/18 02:39:16;;;;;;;1999.90;999.90;;;16.00;55.40;;;;;;5051062;28;20211;-60
2021/04/18 02:41:42;;;;;;;1999.90;999.90;;;16.00;55.50;;;;;;5051221;28;20168;-54
2021/04/18 02:44:09;;;;;;;1999.90;999.90;;;16.10;55.60;;;;;;5051261;28;20631;-57
2021/04/18 02:46:36;;;;;;;1999.90;999.90;;;16.00;55.50;;;;;;5051116;28;20244;-63
2021/04/18 02:49:03;;;;;;;1999.90;999.90;;;15.90;55.80;;;;;;5051078;28;20712;-52
2021/04/18 02:51:31;;;;;;;1999.90;999.90;;;16.00;55.80;;;;;;5050996;28;20170;-48
2021/04/18 02:53:59;;;;;;;1999.90;999.90;;;16.00;56.10;;;;;;5050995;28;20172;-58
2021/04/18 02:56:27;;;;;;;1999.90;999.90;;;15.90;56.10;;;;;;5050976;28;20157;-64
2021/04/18 02:58:55;;;;;;;1999.90;999.90;;;15.80;55.60;;;;;;5050645;28;20536;-53
2021/04/18 03:01:22;;;;;;;1999.90;999.90;;;15.80;55.80;;;;;;5050733;28;20176;-63
2021/04/18 03:03:48;;;;;;;1999.90;999.90;;;15.80;55.80;;;;;;5050841;28;20527;-48
2021/04/18 03:06:15;;;;;;;1999.90;999.90;;;15.80;55.90;;;;;;5050729;28;20681;-63
2021/04/18 03:08:42;;;;;;;1999.90;999.90;;;15.80;55.70;;;;;;5050809;28;20162;-43
2021/04/18 03:11:09;;;;;;;1999.90;999.90;;;15.80;55.40;;;;;;5050624;28;20640;-41
2021/04/18 03:13:36;;;;;;;1999.90;999.90;;;15.90;55.30;;;;;;5050801;28;20260;-62
2021/04/18 03:16:04;;;;;;;1999.90;999.90;;;15.80;54.60;;;;;;5050595;28;20172;-54
2021/04/18 03:18:31;;;;;;;1999.90;999.90;;;15.80;54.50;;;;;;5050393;28;20204;-51
2021/04/18 03:20:57;;;;;;;1999.90;999.90;;;15.80;54.60;;;;;;5050360;28;20217;-55
2021/04/18 03:23:24;;;;;;;1999.90;999.90;;;15.90;54.60;;;;;;5050487;28;20260;-39
2021/04/18 03:25:51;;;;;;;1999.90;999.90;;;15.90;54.40;;;;;;5050462;28;20181;-53
2021/04/18 03:28:18;;;;;;;1999.90;999.90;;;15.90;54.10;;;;;;5050355;28;20639;-57
2021/04/18 03:30:45;;;;;;;1999.90;999.90;;;15.90;52.40;;;;;;5050435;28;20173;-42
2021/04/18 03:33:12;;;;;;;1999.90;999.90;;;15.80;50.70;;;;;;5050429;28;20165;-49
2021/04/18 03:35:39;;;;;;;1999.90;999.90;;;15.70;50.60;;;;;;5050313;28;20632;-64
2021/04/18 03:38:06;;;;;;;1999.90;999.90;;;15.60;49.90;;;;;;5050227;28;20285;-40
2021/04/18 03:40:33;;;;;;;1999.90;999.90;;;15.60;50.20;;;;;;5050169;28;20644;-61
2021/04/18 03:43:00;;;;;;;1999.90;999.90;;;15.60;50.60;;;;;;5049780;28;20527;-52
2021/04/18 03:45:26;;;;;;;1999.90;999.90;;;15.60;49.60;;;;;;5050132;28;20165;-37
2021/04/18 03:47:53;;;;;;;1999.90;999.90;;;15.60;49.60;;;;;;5050158;28;20168;-42
2021/04/18 03:50:20;;;;;;;1999.90;999.90;;;15.70;49.60;;;;;;5050145;28;20192;-43
2021/04/18 03:52:48;;;;;;;1999.90;999.90;;;15.70;49.90;;;;;;5050063;28;20606;-57
2021/04/18 03:55:16;;;;;;;1999.90;999.90;;;15.60;49.70;;;;;;5050062;28;20169;-54
2021/04/18 03:57:43;;;;;;;1999.90;999.90;;;15.50;49.70;;;;;;5050142;28;20238;-58
2021/04/18 04:00:10;;;;;;;1999.90;999.90;;;15.50;50.00;;;;;;5049872;28;20189;-63
2021/04/18 04:02:37;;;;;;;1999.90;999.90;;;15.60;50.40;;;;;;5049968;28;20165;-54
2021/04/18 04:05:05;;;;;;;1999.90;999.90;;;15.70;50.30;;;;;;5049886;28;20177;-36
2021/04/18 04:07:31;;;;;;;1999.90;999.90;;;15.70;49.80;;;;;;5049861;28;20162;-54
2021/04/18 04:09:58;;;;;;;1999.90;999.90;;;15.60;51.50;;;;;;5049774;28;20578;-43
2021/04/18 04:12:27;;;;;;;1999.90;999.90;;;15.60;53.80;;;;;;5049811;28;20249;-54
2021/04/18 04:14:54;;;;;;;1999.90;999.90;;;15.60;56.80;;;;;;5049607;28;20174;-62
2021/04/18 04:17:21;;;;;;;1999.90;999.90;;;15.50;58.60;;;;;;5049942;28;20173;-47
2021/04/18 04:19:48;;;;;;;1999.90;999.90;;;15.40;60.30;;;;;;5049602;28;20224;-51
2021/04/18 04:22:15;;;;;;;1999.90;999.90;;;15.40;62.00;;;;;;5049780;28;20627;-38
2021/04/18 04:24:42;;;;;;;1999.90;999.90;;;15.40;62.60;;;;;;5049656;28;20305;-43
2021/04/18 04:27:09;;;;;;;1999.90;999.90;;;15.20;63.10;;;;;;5049588;28;20627;-38
2021/04/18 04:29:36;;;;;;;1999.90;999.90;;;15.20;63.00;;;;;;5049547;28;20252;-52
2021/04/18 04:32:03;;;;;;;1999.90;999.90;;;15.10;63.10;;;;;;5049490;28;20173;-42
2021/04/18 04:34:30;;;;;;;1999.90;999.90;;;15.10;62.90;;;;;;5048262;28;20627;-47
2021/04/18 04:36:56;;;;;;;1999.90;999.90;;;15.10;63.10;;;;;;5049562;28;20172;-57
2021/04/18 04:39:23;;;;;;;1999.90;999.90;;;15.10;63.90;;;;;;5049373;28;20197;-61
2021/04/18 04:41:50;;;;;;;1999.90;999.90;;;15.00;63.20;;;;;;5049542;28;20170;-63
2021/04/18 04:44:17;;;;;;;1999.90;999.90;;;14.90;63.50;;;;;;5049506;28;20177;-49
2021/04/18 04:46:45;;;;;;;1999.90;999.90;;;15.00;63.60;;;;;;5049418;28;20616;-47
2021/04/18 04:49:13;;;;;;;1999.90;999.90;;;14.90;63.80;;;;;;5049357;28;20230;-46
2021/04/18 04:51:40;;;;;;;1999.90;999.90;;;14.80;64.50;;;;;;5049305;28;20261;-62
2021/04/18 04:54:06;;;;;;;1999.90;999.90;;;14.90;64.20;;;;;;5051028;28;20222;-63
2021/04/18 04:56:33;;;;;;;1999.90;999.90;;;14.90;63.90;;;;;;5052774;28;20194;-59
2021/04/18 04:59:00;;;;;;;1999.90;999.90;;;15.00;64.10;;;;;;5052584;28;20667;-53
2021/04/18 05:01:27;;;;;;;1999.90;999.90;;;15.00;63.40;;;;;;5052685;28;20184;-60
2021/04/18 05:03:54;;;;;;;1999.90;999.90;;;15.00;62.70;;;;;;5052618;28;20229;-40
2021/04/18 05:06:21;;;;;;;1999.90;999.90;;;15.00;62.30;;;;;;5052761;28;20248;-60
2021/04/18 05:08:48;;;;;;;1999.90;999.90;;;15.00;61.40;;;;;;5052529;28;20691;-46
2021/04/18 05:11:15;;;;;;;1999.90;999.90;;;15.00;61.00;;;;;;5052766;28;20674;-62
2021/04/18 05:13:42;;;;;;;1999.90;999.90;;;14.90;59.10;;;;;;5052450;28;20265;-59
2021/04/18 05:16:09;;;;;;;1999.90;999.90;;;14.90;59.50;;;;;;5052449;28;20214;-44
2021/04/18 05:18:35;;;;;;;1999.90;999.90;;;15.00;57.50;;;;;;5051120;28;20201;-60
2021/04/18 05:21:02;;;;;;;1999.90;999.90;;;15.00;57.70;;;;;;5052105;28;20233;-47
2021/04/18 05:23:29;;;;;;;1999.90;999.90;;;15.00;57.50;;;;;;5052412;28;20193;-61
2021/04/18 05:25:56;;;;;;;1999.90;999.90;;;15.00;56.90;;;;;;5052283;28;20181;-43
2021/04/18 05:28:23;;;;;;;1999.90;999.90;;;15.00;57.30;;;;;;5052371;28;20623;-54
2021/04/18 05:30:50;;;;;;;1999.90;999.90;;;15.00;58.90;;;;;;5052294;28;20261;-56
2021/04/18 05:33:17;;;;;;;1999.90;999.90;;;15.10;61.30;;;;;;5052044;28;20184;-54
2021/04/18 05:35:44;;;;;;;1999.90;999.90;;;15.10;62.40;;;;;;5052167;28;20542;-59
2021/04/18 05:38:11;;;;;;;1999.90;999.90;;;15.00;62.50;;;;;;5052014;28;20165;-54
2021/04/18 05:40:37;;;;;;;1999.90;999.90;;;15.00;61.80;;;;;;5052101;28;20174;-55
2021/04/18 05:43:04;;;;;;;1999.90;999.90;;;15.10;61.30;;;;;;5052060;28;20177;-64
2021/04/18 05:45:31;;;;;;;1999.90;999.90;;;15.10;59.50;;;;;;5051931;28;20553;-57
2021/04/18 05:47:58;;;;;;;1999.90;999.90;;;15.20;57.00;;;;;;5051971;28;20256;-58
2021/04/18 05:50:25;;;;;;;1999.90;999.90;;;15.20;56.30;;;;;;5052001;28;20162;-50
2021/04/18 05:52:52;;;;;;;1999.90;999.90;;;15.30;54.90;;;;;;5051852;28;20632;-52
2021/04/18 05:55:19;;;;;;;1999.90;999.90;;;15.40;54.10;;;;;;5051918;28;20169;-57
2021/04/18 05:57:46;;;;;;;1999.90;999.90;;;15.40;56.90;;;;;;5051893;28;20627;-46
2021/04/18 06:00:13;;;;;;;1999.90;999.90;;;15.50;58.10;;;;;;5051736;28;20205;-49
2021/04/18 06:02:40;;;;;;;1999.90;999.90;;;15.60;57.80;;;;;;5051609;28;20178;-48
2021/04/18 06:05:08;;;;;;;1999.90;999.90;;;15.70;57.30;;;;;;5051200;28;20579;-47
2021/04/18 06:07:35;;;;;;;1999.90;999.90;;;15.80;57.30;;;;;;5051701;28;20256;-54
2021/04/18 06:10:05;;;;;;;1999.90;999.90;;;15.90;57.10;;;;;;5051550;28;20166;-57
2021/04/18 06:12:32;;;;;;;1999.90;999.90;;;16.00;55.40;;;;;;5051672;28;20234;-54
2021/04/18 06:14:59;;;;;;;1999.90;999.90;;;16.10;54.70;;;;;;5051586;28;20214;-61
2021/04/18 06:17:26;;;;;;;1999.90;999.90;;;16.30;54.50;;;;;;5051725;28;20222;-62
2021/04/18 06:19:53;;;;;;;1999.90;999.90;;;16.40;54.70;;;;;;5051121;28;20238;-48
2021/04/18 06:22:20;;;;;;;1999.90;999.90;;;16.60;54.70;;;;;;5051483;28;20177;-59
2021/04/18 06:24:47;;;;;;;1999.90;999.90;;;16.80;55.60;;;;;;5051400;28;20173;-47
2021/04/18 06:27:14;;;;;;;1999.90;999.90;;;16.80;55.60;;;;;;5051327;28;20169;-47
2021/04/18 06:29:41;;;;;;;1999.90;999.90;;;17.00;55.00;;;;;;5051372;28;20222;-53
2021/04/18 06:32:08;;;;;;;1999.90;999.90;;;17.20;54.40;;;;;;5051350;28;20657;-42
2021/04/18 06:34:35;;;;;;;1999.90;999.90;;;17.40;53.50;;;;;;5051391;28;20227;-51
2021/04/18 06:37:02;;;;;;;1999.90;999.90;;;17.40;52.80;;;;;;5051156;28;20265;-47
2021/04/18 06:39:29;;;;;;;1999.90;999.90;;;17.60;51.30;;;;;;5051224;28;20197;-41
2021/04/18 06:42:01;;;;;;;1999.90;999.90;;;17.80;50.60;;;;;;5051296;28;20165;-40
2021/04/18 06:44:30;;;;;;;1999.90;999.90;;;17.90;50.20;;;;;;5051130;28;20197;-42
2021/04/18 06:46:59;;;;;;;1999.90;999.90;;;18.10;49.40;;;;;;5051183;28;20169;-47
2021/04/18 06:49:29;;;;;;;1999.90;999.90;;;18.30;49.00;;;;;;5051107;28;20260;-40
2021/04/18 06:51:58;;;;;;;1999.90;999.90;;;18.40;49.00;;;;;;5051093;28;20172;-54
2021/04/18 06:54:25;;;;;;;1999.90;999.90;;;18.50;47.80;;;;;;5051056;28;20608;-48
2021/04/18 06:56:52;;;;;;;1999.90;999.90;;;18.70;47.00;;;;;;5050866;28;20173;-47
2021/04/18 06:59:19;;;;;;;1999.90;999.90;;;18.80;46.10;;;;;;5050872;28;20240;-43
2021/04/18 07:01:46;;;;;;;1999.90;999.90;;;19.00;45.90;;;;;;5050769;28;20535;-56
2021/04/18 07:04:17;;;;;;;1999.90;999.90;;;19.20;45.70;;;;;;5050700;28;20191;-58
2021/04/18 07:06:51;;;;;;;1999.90;999.90;;;19.40;44.90;;;;;;5050780;28;20166;-43
2021/04/18 07:09:23;;;;;;;1999.90;999.90;;;19.60;45.60;;;;;;5050661;28;20170;-44
2021/04/18 07:12:02;;;;;;;1999.90;999.90;;;19.70;47.40;;;;;;5050509;28;20264;-61
2021/04/18 07:14:31;;;;;;;1999.90;999.90;;;19.90;46.40;;;;;;5050669;28;20188;-40
2021/04/18 07:17:12;;;;;;;1999.90;999.90;;;20.10;45.60;;;;;;5049588;28;20177;-51
2021/04/18 07:19:44;;;;;;;1999.90;999.90;;;20.30;46.40;;;;;;5050192;28;20217;-53
2021/04/18 07:22:15;;;;;;;1999.90;999.90;;;20.50;45.80;;;;;;5050557;28;20165;-57
2021/04/18 07:24:56;;;;;;;1999.90;999.90;;;20.80;44.70;;;;;;5050427;28;20166;-42
2021/04/18 07:27:24;;;;;;;1999.90;999.90;;;21.10;44.70;;;;;;5050535;28;20639;-41
2021/04/18 07:29:56;;;;;;;1999.90;999.90;;;21.30;44.10;;;;;;5050388;28;20170;-55
2021/04/18 07:32:28;;;;;;;1999.90;999.90;;;21.50;42.60;;;;;;5050465;28;20150;-48
2021/04/18 07:34:55;;;;;;;1999.90;999.90;;;21.70;42.60;;;;;;5050394;28;20161;-37
2021/04/18 07:37:25;;;;;;;1999.90;999.90;;;21.90;41.20;;;;;;5050329;28;20165;-40
2021/04/18 07:39:59;;;;;;;1999.90;999.90;;;22.20;40.50;;;;;;5050309;28;20192;-62
2021/04/18 07:42:35;;;;;;;1999.90;999.90;;;22.40;40.50;;;;;;5050301;28;20146;-53
2021/04/18 07:45:07;;;;;;;1999.90;999.90;;;22.70;39.20;;;;;;5050324;28;20179;-52
2021/04/18 07:47:37;;;;;;;1999.90;999.90;;;22.90;39.20;;;;;;5050369;28;20562;-53
2021/04/18 07:50:16;;;;;;;1999.90;999.90;;;23.20;38.30;;;;;;5050433;28;20154;-54
2021/04/18 07:52:46;;;;;;;1999.90;999.90;;;23.50;37.30;;;;;;5050249;28;20193;-59
2021/04/18 07:55:14;;;;;;;1999.90;999.90;;;23.80;36.80;;;;;;5050189;28;20172;-46
2021/04/18 07:57:42;;;;;;;1999.90;999.90;;;24.10;36.40;;;;;;5050127;28;20169;-42
2021/04/18 08:00:11;;;;;;;1999.90;999.90;;;24.50;34.30;;;;;;5049885;28;20237;-49
2021/04/18 08:02:40;;;;;;;1999.90;999.90;;;24.80;34.10;;;;;;5049971;28;20218;-51
2021/04/18 08:05:11;;;;;;;1999.90;999.90;;;25.30;34.20;;;;;;5049963;28;20651;-54
2021/04/18 08:08:01;;;;;;;1999.90;999.90;;;25.80;32.20;;;;;;5049883;28;20264;-38
2021/04/18 08:10:53;;;;;;;1999.90;999.90;;;26.10;32.70;;;;;;5049877;28;20237;-37
2021/04/18 08:13:23;;;;;;;1999.90;999.90;;;26.60;35.20;;;;;;5054188;28;20184;-44
2021/04/18 08:15:57;;;;;;;1999.90;999.90;;;26.90;32.50;;;;;;5049712;28;20180;-61
2021/04/18 08:18:46;;;;;;;1999.90;999.90;;;27.30;29.90;;;;;;5049653;28;20230;-53
2021/04/18 08:21:27;;;;;;;1999.90;999.90;;;28.10;27.70;;;;;;5049760;28;20185;-44
2021/04/18 08:23:55;;;;;;;1999.90;999.90;;;28.80;27.70;;;;;;5049701;28;20157;-45
2021/04/18 08:26:24;;;;;;;1999.90;999.90;;;29.20;26.70;;;;;;5049715;28;20165;-55
2021/04/18 08:28:54;;;;;;;1999.90;999.90;;;29.50;26.70;;;;;;5052523;28;20165;-38
2021/04/18 08:31:24;;;;;;;1999.90;999.90;;;29.90;26.50;;;;;;5053196;28;20177;-59
2021/04/18 08:33:56;;;;;;;1999.90;999.90;;;30.30;24.10;;;;;;5053229;28;20169;-50
2021/04/18 08:36:31;;;;;;;1999.90;999.90;;;30.70;22.90;;;;;;5053121;28;20227;-55
2021/04/18 08:39:07;;;;;;;1999.90;999.90;;;31.10;23.90;;;;;;5053125;28;20211;-49
2021/04/18 08:41:47;;;;;;;1999.90;999.90;;;31.30;22.80;;;;;;5053082;28;20169;-55
2021/04/18 08:44:18;;;;;;;1999.90;999.90;;;31.60;20.90;;;;;;5053780;28;20165;-66
2021/04/18 08:46:47;;;;;;;1999.90;999.90;;;31.90;20.90;;;;;;5054311;28;20631;-47
2021/04/18 08:49:35;;;;;;;1999.90;999.90;;;32.20;20.50;;;;;;5053503;28;20627;-52
2021/04/18 08:52:05;;;;;;;1999.90;999.90;;;32.60;20.30;;;;;;5052439;28;20233;-65
2021/04/18 08:54:41;;;;;;;1999.90;999.90;;;32.90;20.30;;;;;;5052858;28;20176;-49
2021/04/18 08:57:13;;;;;;;1999.90;999.90;;;33.00;19.70;;;;;;5053070;28;20168;-58
2021/04/18 08:59:42;;;;;;;1999.90;999.90;;;33.20;20.20;;;;;;5052882;28;20555;-63
2021/04/18 09:02:12;;;;;;;1999.90;999.90;;;33.60;19.00;;;;;;5052915;28;20167;-52
2021/04/18 09:04:48;;;;;;;1999.90;999.90;;;33.70;20.10;;;;;;5052929;28;20228;-51
2021/04/18 09:07:17;;;;;;;1999.90;999.90;;;33.80;20.20;;;;;;5052746;28;20154;-57
2021/04/18 09:09:45;;;;;;;1999.90;999.90;;;33.90;19.60;;;;;;5052886;28;20180;-37
2021/04/18 09:12:17;;;;;;;1999.90;999.90;;;34.00;19.80;;;;;;5052726;28;20630;-52
2021/04/18 09:14:47;;;;;;;1999.90;999.90;;;34.10;19.70;;;;;;5052605;28;20612;-48
2021/04/18 09:17:22;;;;;;;1999.90;999.90;;;34.70;19.10;;;;;;5052526;28;20179;-47
2021/04/18 09:19:56;;;;;;;1999.90;999.90;;;34.20;19.50;;;;;;5052139;28;20693;-50
2021/04/18 09:22:25;;;;;;;1999.90;999.90;;;34.60;19.10;;;;;;5052621;28;20161;-45
2021/04/18 09:24:56;;;;;;;1999.90;999.90;;;35.00;19.00;;;;;;5052462;28;20197;-47
2021/04/18 09:27:34;;;;;;;1999.90;999.90;;;35.20;18.60;;;;;;5052253;28;20177;-52
2021/04/18 09:30:06;;;;;;;1999.90;999.90;;;35.20;18.80;;;;;;5052342;28;20165;-56
2021/04/18 09:32:36;;;;;;;1999.90;999.90;;;35.10;18.50;;;;;;5051099;28;20180;-58
2021/04/18 09:35:04;;;;;;;1999.90;999.90;;;35.30;18.90;;;;;;5052271;28;20641;-55
2021/04/18 09:37:37;;;;;;;1999.90;999.90;;;35.20;19.00;;;;;;5052213;28;20252;-59
2021/04/18 09:40:08;;;;;;;1999.90;999.90;;;35.60;19.90;;;;;;5051434;28;20197;-65
2021/04/18 09:42:39;;;;;;;1999.90;999.90;;;35.30;19.40;;;;;;5052703;28;20211;-61
2021/04/18 09:45:15;;;;;;;1999.90;999.90;;;35.60;19.10;;;;;;5052194;28;20167;-57
2021/04/18 09:47:45;;;;;;;1999.90;999.90;;;35.80;19.00;;;;;;5052094;28;20236;-65
2021/04/18 09:50:22;;;;;;;1999.90;999.90;;;36.00;19.00;;;;;;5052041;28;20568;-51
2021/04/18 09:52:51;;;;;;;1999.90;999.90;;;36.30;18.40;;;;;;5052060;27;20226;-57
2021/04/18 09:55:28;;;;;;;1999.90;999.90;;;36.40;18.30;;;;;;5051978;28;20260;-49
2021/04/18 09:58:01;;;;;;;1999.90;999.90;;;36.30;18.60;;;;;;5051866;28;20165;-60
2021/04/18 10:00:31;;;;;;;1999.90;999.90;;;36.50;18.70;;;;;;5051808;28;20203;-63
2021/04/18 10:03:14;;;;;;;1999.90;999.90;;;36.80;18.50;;;;;;5051894;28;20635;-43
2021/04/18 10:05:43;;;;;;;1999.90;999.90;;;36.80;18.50;;;;;;5051788;28;20557;-44
2021/04/18 10:08:24;;;;;;;1999.90;999.90;;;37.00;18.40;;;;;;5051803;28;20168;-40
2021/04/18 10:10:54;;;;;;;1999.90;999.90;;;37.00;16.70;;;;;;5051431;28;20169;-48
2021/04/18 10:13:42;;;;;;;1999.90;999.90;;;36.80;16.00;;;;;;5051298;28;20528;-54
2021/04/18 10:16:11;;;;;;;1999.90;999.90;;;36.60;15.90;;;;;;5051386;28;20178;-47
2021/04/18 10:18:40;;;;;;;1999.90;999.90;;;36.60;16.20;;;;;;5051781;28;20205;-55
2021/04/18 10:21:21;;;;;;;1999.90;999.90;;;36.60;16.00;;;;;;5051381;28;20221;-54
2021/04/18 10:23:50;;;;;;;1999.90;999.90;;;36.60;15.80;;;;;;5051558;28;20165;-60
2021/04/18 10:26:20;;;;;;;1999.90;999.90;;;36.40;15.90;;;;;;5051630;28;20257;-63
2021/04/18 10:28:51;;;;;;;1999.90;999.90;;;36.50;15.90;;;;;;5051434;28;20196;-44
2021/04/18 10:31:20;;;;;;;1999.90;999.90;;;36.60;16.10;;;;;;5051477;28;20150;-65
2021/04/18 10:33:47;;;;;;;1999.90;999.90;;;36.60;16.00;;;;;;5051561;28;20172;-53
2021/04/18 10:36:15;;;;;;;1999.90;999.90;;;36.60;16.00;;;;;;5051178;28;20169;-57
2021/04/18 10:38:43;;;;;;;1999.90;999.90;;;36.70;16.80;;;;;;5050977;28;20702;-53
2021/04/18 10:41:11;;;;;;;1999.90;999.90;;;36.90;16.10;;;;;;5051109;28;20201;-66
2021/04/18 10:43:38;;;;;;;1999.90;999.90;;;36.80;16.00;;;;;;5050906;28;20251;-49
2021/04/18 10:46:05;;;;;;;1999.90;999.90;;;36.90;15.80;;;;;;5051037;28;20176;-54
2021/04/18 10:48:32;;;;;;;1999.90;999.90;;;37.10;15.70;;;;;;5050835;28;20205;-44
2021/04/18 10:51:00;;;;;;;1999.90;999.90;;;37.10;15.80;;;;;;5049779;28;20177;-63
2021/04/18 10:53:27;;;;;;;1999.90;999.90;;;37.10;15.70;;;;;;5050896;28;20222;-50
2021/04/18 10:55:54;;;;;;;1999.90;999.90;;;37.20;16.10;;;;;;5049681;28;20169;-63
2021/04/18 10:58:22;;;;;;;1999.90;999.90;;;37.10;15.70;;;;;;5050925;28;20165;-60
2021/04/18 11:00:49;;;;;;;1999.90;999.90;;;37.10;15.90;;;;;;5050958;28;20168;-57
2021/04/18 11:03:16;;;;;;;1999.90;999.90;;;37.30;16.30;;;;;;5050875;28;20221;-49
2021/04/18 11:05:43;;;;;;;1999.90;999.90;;;37.40;16.20;;;;;;5050475;28;20184;-47
2021/04/18 11:08:11;;;;;;;1999.90;999.90;;;37.60;15.90;;;;;;5050381;28;20178;-59
2021/04/18 11:10:38;;;;;;;1999.90;999.90;;;37.60;16.30;;;;;;5050195;28;20177;-59
2021/04/18 11:13:05;;;;;;;1999.90;999.90;;;37.70;16.70;;;;;;5050157;28;20173;-66
2021/04/18 11:15:32;;;;;;;1999.90;999.90;;;37.70;16.30;;;;;;5050081;28;20173;-55
2021/04/18 11:17:59;;;;;;;1999.90;999.90;;;37.70;17.10;;;;;;5050068;28;20180;-42
2021/04/18 11:20:26;;;;;;;1999.90;999.90;;;37.90;16.60;;;;;;5049562;28;20256;-62
2021/04/18 11:22:54;;;;;;;1999.90;999.90;;;38.10;16.40;;;;;;5049977;28;20651;-41
2021/04/18 11:25:21;;;;;;;1999.90;999.90;;;38.10;16.50;;;;;;5050173;28;20253;-63
2021/04/18 11:27:48;;;;;;;1999.90;999.90;;;37.90;16.40;;;;;;5049915;28;20268;-50
2021/04/18 11:30:16;;;;;;;1999.90;999.90;;;38.00;16.80;;;;;;5050002;28;20269;-62
2021/04/18 11:32:43;;;;;;;1999.90;999.90;;;38.20;16.60;;;;;;5050509;28;20166;-44
2021/04/18 11:35:11;;;;;;;1999.90;999.90;;;38.30;16.40;;;;;;5049870;28;20592;-52
2021/04/18 11:37:39;;;;;;;1999.90;999.90;;;38.30;16.50;;;;;;5049809;28;20169;-57
2021/04/18 11:40:08;;;;;;;1999.90;999.90;;;38.40;16.50;;;;;;5050039;28;20209;-59
2021/04/18 11:42:36;;;;;;;1999.90;999.90;;;38.50;16.40;;;;;;5049581;28;20165;-49
2021/04/18 11:45:04;;;;;;;1999.90;999.90;;;38.30;16.20;;;;;;5049558;28;20172;-49
2021/04/18 11:47:31;;;;;;;1999.90;999.90;;;38.30;16.40;;;;;;5049553;28;20623;-63
2021/04/18 11:49:58;;;;;;;1999.90;999.90;;;38.30;16.40;;;;;;5049476;28;20192;-52
2021/04/18 11:52:25;;;;;;;1999.90;999.90;;;38.50;16.20;;;;;;5049252;28;20168;-47
2021/04/18 11:54:52;;;;;;;1999.90;999.90;;;38.50;16.40;;;;;;5049761;28;20590;-49
2021/04/18 11:57:19;;;;;;;1999.90;999.90;;;38.60;16.30;;;;;;5049487;28;20560;-60
2021/04/18 11:59:46;;;;;;;1999.90;999.90;;;38.80;16.80;;;;;;5049268;28;20553;-48
2021/04/18 12:02:13;;;;;;;1999.90;999.90;;;38.60;17.10;;;;;;5049166;28;20165;-52
2021/04/18 12:04:40;;;;;;;1999.90;999.90;;;38.10;16.90;;;;;;5049510;28;20161;-58
2021/04/18 12:07:06;;;;;;;1999.90;999.90;;;37.70;17.20;;;;;;5049504;28;20200;-60